Time;durP1;ratioP1;P1;durP2;ratioP2;P2;SDS_P1;SDS_P2;PMS_P1;PMS_P2;Temp;Humidity;BMP_temperature;BMP_pressure;BME280_temperature;BME280_humidity;BME280_pressure;Samples;Min_cycle;Max_cycle;Signal;HPM_P1;HPM_P2
2023/05/11 00:01:04;;;;;;;;;;;19.50;55.80;;;;;;6297523;28;19912;-64
2023/05/11 00:04:05;;;;;;;;;;;19.50;55.80;;;;;;6297200;28;19923;-65
2023/05/11 00:07:05;;;;;;;;;;;19.50;55.80;;;;;;6297271;28;19917;-65
2023/05/11 00:10:06;;;;;;;;;;;19.50;55.80;;;;;;6279139;28;19916;-64
2023/05/11 00:13:07;;;;;;;;;;;19.50;55.80;;;;;;6297530;28;19908;-65
2023/05/11 00:16:07;;;;;;;;;;;19.50;55.80;;;;;;6297239;28;19913;-64
2023/05/11 00:19:08;;;;;;;;;;;19.50;55.80;;;;;;6296824;28;19914;-64
2023/05/11 00:22:08;;;;;;;;;;;19.40;55.80;;;;;;6296446;28;19908;-65
2023/05/11 00:25:09;;;;;;;;;;;19.40;55.80;;;;;;6296990;28;19908;-66
2023/05/11 00:28:09;;;;;;;;;;;19.40;55.80;;;;;;6290837;28;19908;-65
2023/05/11 00:31:10;;;;;;;;;;;19.40;55.80;;;;;;6296827;28;19913;-64
2023/05/11 00:34:11;;;;;;;;;;;19.50;55.80;;;;;;6296643;28;20393;-64
2023/05/11 00:37:11;;;;;;;;;;;19.50;55.80;;;;;;6296481;28;20319;-65
2023/05/11 00:40:12;;;;;;;;;;;19.50;55.80;;;;;;6296273;28;19908;-65
2023/05/11 00:43:12;;;;;;;;;;;19.50;55.80;;;;;;6296449;28;19916;-65
2023/05/11 00:46:13;;;;;;;;;;;19.50;55.80;;;;;;6296345;28;19928;-64
2023/05/11 00:49:16;;;;;;;;;;;19.40;55.80;;;;;;6296317;28;19940;-65
2023/05/11 00:52:16;;;;;;;;;;;19.40;55.80;;;;;;6295973;28;19958;-65
2023/05/11 00:55:20;;;;;;;;;;;19.50;55.80;;;;;;6296358;28;19909;-65
2023/05/11 00:58:21;;;;;;;;;;;19.50;55.80;;;;;;6295890;28;19919;-64
2023/05/11 01:01:21;;;;;;;;;;;19.50;55.80;;;;;;6296057;28;20301;-65
2023/05/11 01:04:22;;;;;;;;;;;19.50;55.80;;;;;;6295917;28;20404;-65
2023/05/11 01:07:31;;;;;;;;;;;19.50;55.80;;;;;;6295948;28;19915;-64
2023/05/11 01:10:32;;;;;;;;;;;19.50;55.90;;;;;;6295518;28;19909;-64
2023/05/11 01:13:36;;;;;;;;;;;19.40;55.80;;;;;;6294915;28;20297;-64
2023/05/11 01:16:39;;;;;;;;;;;19.40;55.80;;;;;;6295930;28;20003;-65
2023/05/11 01:19:45;;;;;;;;;;;19.50;55.80;;;;;;6277670;28;19927;-65
2023/05/11 01:22:55;;;;;;;;;;;19.50;55.90;;;;;;6295805;28;19917;-65
2023/05/11 01:26:02;;;;;;;;;;;19.50;55.80;;;;;;6295203;28;19912;-65
2023/05/11 01:29:18;;;;;;;;;;;19.50;55.90;;;;;;6295365;28;19908;-65
2023/05/11 01:32:19;;;;;;;;;;;19.40;55.80;;;;;;6295354;28;19947;-65
2023/05/11 01:35:22;;;;;;;;;;;19.50;55.90;;;;;;6294893;28;19986;-65
2023/05/11 01:38:24;;;;;;;;;;;19.50;55.90;;;;;;6295216;28;19970;-65
2023/05/11 01:41:27;;;;;;;;;;;19.50;55.90;;;;;;6294744;28;19960;-65
2023/05/11 01:44:29;;;;;;;;;;;19.50;55.90;;;;;;6294735;28;19912;-64
2023/05/11 01:47:30;;;;;;;;;;;19.40;55.80;;;;;;6294842;28;19958;-65
2023/05/11 01:50:31;;;;;;;;;;;19.40;55.80;;;;;;6294804;28;19908;-65
2023/05/11 01:53:33;;;;;;;;;;;19.50;55.90;;;;;;6293343;28;19913;-65
2023/05/11 01:56:35;;;;;;;;;;;19.50;55.90;;;;;;6294710;28;19908;-65
2023/05/11 01:59:38;;;;;;;;;;;19.50;55.90;;;;;;6294416;28;19932;-65
2023/05/11 02:02:38;;;;;;;;;;;19.50;55.90;;;;;;6294607;28;19923;-64
2023/05/11 02:05:40;;;;;;;;;;;19.50;55.90;;;;;;6294598;28;19916;-65
2023/05/11 02:08:40;;;;;;;;;;;19.50;55.90;;;;;;6294895;28;19959;-64
2023/05/11 02:11:42;;;;;;;;;;;19.50;55.90;;;;;;6294587;28;19912;-65
2023/05/11 02:14:43;;;;;;;;;;;19.50;55.90;;;;;;6294455;28;20281;-64
2023/05/11 02:17:44;;;;;;;;;;;19.40;55.80;;;;;;6294343;28;20365;-65
2023/05/11 02:20:46;;;;;;;;;;;19.50;55.90;;;;;;6276333;28;19909;-64
2023/05/11 02:23:47;;;;;;;;;;;19.50;55.90;;;;;;6294583;28;19921;-65
2023/05/11 02:26:48;;;;;;;;;;;19.50;55.90;;;;;;6294126;28;20297;-65
2023/05/11 02:29:48;;;;;;;;;;;19.40;55.80;;;;;;6294430;28;19940;-65
2023/05/11 02:32:50;;;;;;;;;;;19.50;55.90;;;;;;6293938;28;19909;-65
2023/05/11 02:35:53;;;;;;;;;;;19.50;55.90;;;;;;6276113;28;19913;-65
2023/05/11 02:39:00;;;;;;;;;;;19.50;55.90;;;;;;6294028;28;19916;-65
2023/05/11 02:42:09;;;;;;;;;;;19.50;55.90;;;;;;6294218;28;19962;-65
2023/05/11 02:45:10;;;;;;;;;;;19.40;55.80;;;;;;6293738;28;19943;-65
2023/05/11 02:48:31;;;;;;;;;;;19.50;55.90;;;;;;6294312;28;19995;-64
2023/05/11 02:51:33;;;;;;;;;;;19.50;56.00;;;;;;6275955;28;19915;-65
2023/05/11 02:54:34;;;;;;;;;;;19.50;56.00;;;;;;6293762;28;19916;-65
2023/05/11 03:05:09;;;;;;;;;;;19.40;55.90;;;;;;6293948;28;20003;-64
2023/05/11 03:08:10;;;;;;;;;;;19.50;55.90;;;;;;6293863;28;19991;-64
2023/05/11 03:11:13;;;;;;;;;;;19.50;56.00;;;;;;6293941;28;19977;-65
2023/05/11 03:14:14;;;;;;;;;;;19.50;56.00;;;;;;6293592;28;19916;-65
2023/05/11 03:17:15;;;;;;;;;;;19.50;55.90;;;;;;6275431;28;19916;-65
2023/05/11 03:20:16;;;;;;;;;;;19.50;56.00;;;;;;6293987;28;19919;-65
2023/05/11 03:23:17;;;;;;;;;;;19.50;56.00;;;;;;6293443;28;19913;-64
2023/05/11 03:26:20;;;;;;;;;;;19.50;56.00;;;;;;6275586;28;19916;-65
2023/05/11 03:29:21;;;;;;;;;;;19.50;56.00;;;;;;6293175;28;19908;-65
2023/05/11 03:32:22;;;;;;;;;;;19.40;55.90;;;;;;6293711;28;19909;-65
2023/05/11 03:35:24;;;;;;;;;;;19.40;55.90;;;;;;6292943;28;20438;-64
2023/05/11 03:38:26;;;;;;;;;;;19.50;55.90;;;;;;6296761;28;19974;-65
2023/05/11 03:41:30;;;;;;;;;;;19.50;55.90;;;;;;6297889;28;19909;-65
2023/05/11 03:44:31;;;;;;;;;;;19.50;56.00;;;;;;6297828;28;19939;-64
2023/05/11 03:47:32;;;;;;;;;;;19.40;55.80;;;;;;6297601;28;20003;-65
2023/05/11 03:50:33;;;;;;;;;;;19.40;55.90;;;;;;6298053;28;19909;-65
2023/05/11 03:53:34;;;;;;;;;;;19.50;56.00;;;;;;6297494;28;19912;-65
2023/05/11 03:56:35;;;;;;;;;;;19.50;55.90;;;;;;6279768;28;20324;-65
2023/05/11 04:03:14;;;;;;;;;;;19.50;56.00;;;;;;6297025;28;19913;-65
2023/05/11 04:06:16;;;;;;;;;;;19.50;55.90;;;;;;6297137;28;19958;-65
2023/05/11 04:09:16;;;;;;;;;;;19.50;56.00;;;;;;6279245;28;19940;-64
2023/05/11 04:12:17;;;;;;;;;;;19.50;56.00;;;;;;6297248;28;20292;-65
2023/05/11 04:15:17;;;;;;;;;;;19.50;56.00;;;;;;6297157;28;19909;-65
2023/05/11 04:18:18;;;;;;;;;;;19.40;55.90;;;;;;6296567;28;20338;-64
2023/05/11 04:21:19;;;;;;;;;;;19.50;56.00;;;;;;6297009;28;19916;-64
2023/05/11 04:24:19;;;;;;;;;;;19.50;56.00;;;;;;6278862;28;20336;-65
2023/05/11 04:27:20;;;;;;;;;;;19.50;56.00;;;;;;6296690;28;19916;-65
2023/05/11 04:30:20;;;;;;;;;;;19.50;56.00;;;;;;6296803;28;19916;-64
2023/05/11 04:33:21;;;;;;;;;;;19.50;56.00;;;;;;6296595;28;19909;-65
2023/05/11 04:36:22;;;;;;;;;;;19.50;56.70;;;;;;6295804;28;19934;-69
2023/05/11 04:39:22;;;;;;;;;;;19.50;56.00;;;;;;6282350;28;19916;-68
2023/05/11 04:42:23;;;;;;;;;;;19.50;56.00;;;;;;6275280;28;20328;-68
2023/05/11 04:45:23;;;;;;;;;;;19.40;55.90;;;;;;6294151;28;19925;-68
2023/05/11 04:48:27;;;;;;;;;;;19.40;55.90;;;;;;6275838;28;19919;-68
2023/05/11 04:51:28;;;;;;;;;;;19.50;56.10;;;;;;6295063;28;19908;-68
2023/05/11 04:54:29;;;;;;;;;;;19.50;56.70;;;;;;6287029;28;19919;-68
2023/05/11 04:57:30;;;;;;;;;;;19.50;56.00;;;;;;6301799;28;19916;-70
2023/05/11 05:00:31;;;;;;;;;;;19.50;56.00;;;;;;6275900;28;19908;-67
2023/05/11 05:03:31;;;;;;;;;;;19.50;56.00;;;;;;6273240;28;19913;-68
2023/05/11 05:06:32;;;;;;;;;;;19.50;55.90;;;;;;6294034;28;19908;-68
2023/05/11 05:09:33;;;;;;;;;;;19.50;55.90;;;;;;6295333;28;19908;-68
2023/05/11 05:12:37;;;;;;;;;;;19.50;55.80;;;;;;6294932;28;19908;-67
2023/05/11 05:15:37;;;;;;;;;;;19.50;55.80;;;;;;6302438;28;19967;-67
2023/05/11 05:18:39;;;;;;;;;;;19.50;55.80;;;;;;6294227;28;20323;-67
2023/05/11 05:21:40;;;;;;;;;;;19.50;55.90;;;;;;6294362;28;20017;-67
2023/05/11 05:24:40;;;;;;;;;;;19.50;55.90;;;;;;6293733;28;20382;-68
2023/05/11 05:27:41;;;;;;;;;;;19.50;55.80;;;;;;6267866;28;19909;-68
2023/05/11 05:30:41;;;;;;;;;;;19.50;55.80;;;;;;6291861;28;19919;-68
2023/05/11 05:33:42;;;;;;;;;;;19.50;55.80;;;;;;6295457;28;19935;-68
2023/05/11 05:36:43;;;;;;;;;;;19.50;55.80;;;;;;6284396;28;19920;-68
2023/05/11 05:39:43;;;;;;;;;;;19.50;55.70;;;;;;6293881;28;19956;-68
2023/05/11 05:42:44;;;;;;;;;;;19.50;55.70;;;;;;6314092;28;19943;-68
2023/05/11 05:45:45;;;;;;;;;;;19.50;55.60;;;;;;6281652;28;20094;-68
2023/05/11 05:48:46;;;;;;;;;;;19.50;55.60;;;;;;6300283;28;19924;-68
2023/05/11 05:51:47;;;;;;;;;;;19.50;55.60;;;;;;6310829;28;19991;-68
2023/05/11 05:54:47;;;;;;;;;;;19.50;55.50;;;;;;6314201;28;20432;-68
2023/05/11 05:57:48;;;;;;;;;;;19.50;55.50;;;;;;6288911;28;20663;-68
2023/05/11 06:00:49;;;;;;;;;;;19.50;55.30;;;;;;6298864;28;20002;-68
2023/05/11 06:03:50;;;;;;;;;;;19.50;55.30;;;;;;6310688;28;19919;-68
2023/05/11 06:06:51;;;;;;;;;;;19.50;55.30;;;;;;6299871;28;19948;-67
2023/05/11 06:09:52;;;;;;;;;;;19.50;55.30;;;;;;6294526;28;19935;-68
2023/05/11 06:12:52;;;;;;;;;;;19.50;55.30;;;;;;6295086;28;19913;-68
2023/05/11 06:15:53;;;;;;;;;;;19.50;55.40;;;;;;6297890;28;20373;-68
2023/05/11 06:18:53;;;;;;;;;;;19.50;55.30;;;;;;6301892;28;19912;-68
2023/05/11 06:21:54;;;;;;;;;;;19.50;55.40;;;;;;6308772;28;19938;-68
2023/05/11 06:24:55;;;;;;;;;;;19.50;55.30;;;;;;6277193;28;20377;-68
2023/05/11 06:27:55;;;;;;;;;;;19.50;55.30;;;;;;6295080;28;19912;-68
2023/05/11 06:30:59;;;;;;;;;;;19.50;55.30;;;;;;6295153;28;19919;-68
2023/05/11 06:33:59;;;;;;;;;;;19.50;55.30;;;;;;6294878;28;20003;-68
2023/05/11 06:37:00;;;;;;;;;;;19.50;55.30;;;;;;6294518;28;19919;-68
2023/05/11 06:40:00;;;;;;;;;;;19.50;55.20;;;;;;6294811;28;19908;-68
2023/05/11 06:43:01;;;;;;;;;;;19.50;55.20;;;;;;6294097;28;20015;-68
2023/05/11 06:46:02;;;;;;;;;;;19.50;55.30;;;;;;6294631;28;19921;-68
2023/05/11 06:49:02;;;;;;;;;;;19.50;55.20;;;;;;6268418;28;20011;-68
2023/05/11 06:52:03;;;;;;;;;;;19.50;55.20;;;;;;6261161;28;19965;-68
2023/05/11 06:55:03;;;;;;;;;;;19.50;55.20;;;;;;6294614;28;19936;-68
2023/05/11 06:58:04;;;;;;;;;;;19.50;55.20;;;;;;6296093;28;19909;-67
2023/05/11 07:01:06;;;;;;;;;;;19.50;55.20;;;;;;6301824;28;20010;-68
2023/05/11 07:04:07;;;;;;;;;;;19.50;55.20;;;;;;6297059;28;20364;-68
2023/05/11 07:07:10;;;;;;;;;;;19.50;55.10;;;;;;6301354;28;19915;-69
2023/05/11 07:10:10;;;;;;;;;;;19.50;55.20;;;;;;6319886;28;20300;-69
2023/05/11 07:13:11;;;;;;;;;;;19.50;55.10;;;;;;6322623;28;19941;-69
2023/05/11 07:16:11;;;;;;;;;;;19.50;55.10;;;;;;6306338;28;19987;-69
2023/05/11 07:19:12;;;;;;;;;;;19.50;55.10;;;;;;6285322;28;19908;-69
2023/05/11 07:22:13;;;;;;;;;;;19.50;55.10;;;;;;6301328;28;20375;-69
2023/05/11 07:25:13;;;;;;;;;;;19.50;55.10;;;;;;6306150;28;20356;-68
2023/05/11 07:28:14;;;;;;;;;;;19.50;55.10;;;;;;6279599;28;20369;-69
2023/05/11 07:31:14;;;;;;;;;;;19.50;55.10;;;;;;6299131;28;19908;-68
2023/05/11 07:34:15;;;;;;;;;;;19.50;55.20;;;;;;6281946;28;20284;-69
2023/05/11 07:37:16;;;;;;;;;;;19.50;55.10;;;;;;6299978;28;19913;-70
2023/05/11 07:40:16;;;;;;;;;;;19.50;55.20;;;;;;6311595;28;19912;-68
2023/05/11 07:43:17;;;;;;;;;;;19.50;55.10;;;;;;6299722;28;19963;-68
2023/05/11 07:46:17;;;;;;;;;;;19.50;55.20;;;;;;6299532;28;19928;-69
2023/05/11 07:49:18;;;;;;;;;;;19.50;55.20;;;;;;6299572;28;19952;-68
2023/05/11 07:52:18;;;;;;;;;;;19.50;55.20;;;;;;6299731;28;20000;-69
2023/05/11 07:55:23;;;;;;;;;;;19.50;55.20;;;;;;6299788;28;20002;-69
2023/05/11 07:58:24;;;;;;;;;;;19.50;55.20;;;;;;6279012;28;19908;-69
2023/05/11 08:01:25;;;;;;;;;;;19.60;55.60;;;;;;6299608;28;19916;-69
2023/05/11 08:04:26;;;;;;;;;;;19.60;55.30;;;;;;6287407;28;19913;-69
2023/05/11 08:07:27;;;;;;;;;;;19.60;55.20;;;;;;6298058;28;20280;-69
2023/05/11 08:10:28;;;;;;;;;;;19.60;55.10;;;;;;6298768;28;19909;-69
2023/05/11 08:13:28;;;;;;;;;;;19.70;55.10;;;;;;6299177;28;19908;-69
2023/05/11 08:16:29;;;;;;;;;;;19.70;54.90;;;;;;6298933;28;19915;-68
2023/05/11 08:19:29;;;;;;;;;;;19.70;54.90;;;;;;6281055;28;19908;-68
2023/05/11 08:22:30;;;;;;;;;;;19.70;54.80;;;;;;6298601;28;19909;-69
2023/05/11 08:25:31;;;;;;;;;;;19.70;54.80;;;;;;6298171;28;19908;-69
2023/05/11 08:28:32;;;;;;;;;;;19.70;54.80;;;;;;6298134;28;19912;-69
2023/05/11 08:31:32;;;;;;;;;;;19.70;55.00;;;;;;6280324;28;19909;-67
2023/05/11 08:34:33;;;;;;;;;;;19.70;55.00;;;;;;6297980;28;19950;-66
2023/05/11 08:37:33;;;;;;;;;;;19.60;54.90;;;;;;6280321;28;19937;-68
2023/05/11 08:40:34;;;;;;;;;;;19.70;55.10;;;;;;6309561;28;19908;-68
2023/05/11 08:43:38;;;;;;;;;;;19.70;55.20;;;;;;6297845;28;19912;-68
2023/05/11 08:46:40;;;;;;;;;;;19.70;55.20;;;;;;6323030;28;19924;-68
2023/05/11 08:49:41;;;;;;;;;;;19.60;55.20;;;;;;6304656;28;19991;-69
2023/05/11 08:52:42;;;;;;;;;;;19.60;55.20;;;;;;6323289;28;19908;-68
2023/05/11 08:55:43;;;;;;;;;;;19.60;55.30;;;;;;6323249;28;19927;-66
2023/05/11 08:58:45;;;;;;;;;;;19.60;55.30;;;;;;6303427;28;19908;-68
2023/05/11 09:01:48;;;;;;;;;;;19.60;55.30;;;;;;6297766;28;19912;-67
2023/05/11 09:04:49;;;;;;;;;;;19.60;55.30;;;;;;6280041;28;19971;-67
2023/05/11 09:07:52;;;;;;;;;;;19.60;55.30;;;;;;6296459;28;19908;-67
2023/05/11 09:10:53;;;;;;;;;;;19.60;55.40;;;;;;6314582;28;19912;-67
2023/05/11 09:13:54;;;;;;;;;;;19.60;55.30;;;;;;6321484;28;20217;-66
2023/05/11 09:16:54;;;;;;;;;;;19.60;55.40;;;;;;6295765;28;20285;-66
2023/05/11 09:19:56;;;;;;;;;;;19.60;55.40;;;;;;6304956;28;20365;-66
2023/05/11 09:22:57;;;;;;;;;;;19.60;55.40;;;;;;6319513;28;20373;-69
2023/05/11 09:25:58;;;;;;;;;;;19.60;55.40;;;;;;6271550;28;20445;-68
2023/05/11 09:28:58;;;;;;;;;;;19.60;55.40;;;;;;6272222;28;19909;-68
2023/05/11 09:31:59;;;;;;;;;;;19.60;55.40;;;;;;6272196;28;19909;-67
2023/05/11 09:35:17;;;;;;;;;;;19.60;55.50;;;;;;6289426;28;19982;-69
2023/05/11 09:38:21;;;;;;;;;;;19.60;55.40;;;;;;6296888;28;20356;-67
2023/05/11 09:41:22;;;;;;;;;;;19.60;55.40;;;;;;6296460;28;19908;-67
2023/05/11 09:44:29;;;;;;;;;;;19.60;55.40;;;;;;6313158;28;19919;-69
2023/05/11 09:47:37;;;;;;;;;;;19.60;55.50;;;;;;6278831;28;19974;-68
2023/05/11 09:50:38;;;;;;;;;;;19.60;55.50;;;;;;6296659;28;19908;-70
2023/05/11 09:53:44;;;;;;;;;;;19.60;55.50;;;;;;6296565;28;19920;-70
2023/05/11 09:56:46;;;;;;;;;;;19.60;55.50;;;;;;6278785;28;19908;-69
2023/05/11 09:59:46;;;;;;;;;;;19.60;55.60;;;;;;6255018;28;19963;-69
2023/05/11 10:03:02;;;;;;;;;;;19.60;55.60;;;;;;6271965;28;19921;-69
2023/05/11 10:06:03;;;;;;;;;;;19.60;55.60;;;;;;6271940;28;19908;-70
2023/05/11 10:09:10;;;;;;;;;;;19.60;55.60;;;;;;6271669;28;19963;-69
2023/05/11 10:12:11;;;;;;;;;;;19.60;55.60;;;;;;6253897;28;19931;-69
2023/05/11 10:15:12;;;;;;;;;;;19.60;55.60;;;;;;6272400;28;19909;-69
2023/05/11 10:18:13;;;;;;;;;;;19.60;55.60;;;;;;6296373;28;19908;-66
2023/05/11 10:21:14;;;;;;;;;;;19.50;55.60;;;;;;6278458;28;20447;-66
2023/05/11 10:24:14;;;;;;;;;;;19.50;55.60;;;;;;6296382;28;19954;-66
2023/05/11 10:27:15;;;;;;;;;;;19.60;55.70;;;;;;6296266;28;19974;-66
2023/05/11 10:30:16;;;;;;;;;;;19.60;55.70;;;;;;6296462;28;20000;-67
2023/05/11 10:33:17;;;;;;;;;;;19.50;55.60;;;;;;6295651;28;19920;-69
2023/05/11 10:36:25;;;;;;;;;;;19.50;55.60;;;;;;6276027;28;20002;-69
2023/05/11 10:39:31;;;;;;;;;;;19.60;55.70;;;;;;6295000;28;19908;-69
2023/05/11 10:42:46;;;;;;;;;;;19.50;55.60;;;;;;6277920;28;19909;-69
2023/05/11 10:45:46;;;;;;;;;;;19.60;55.70;;;;;;6282122;28;19924;-70
2023/05/11 10:49:00;;;;;;;;;;;19.60;56.40;;;;;;6324264;28;20426;-69
2023/05/11 10:52:30;;;;;;;;;;;19.60;55.70;;;;;;6307058;28;19909;-69
2023/05/11 10:55:57;;;;;;;;;;;19.60;55.70;;;;;;6281563;28;19913;-69
2023/05/11 10:59:17;;;;;;;;;;;19.60;55.80;;;;;;6277927;28;20373;-70
2023/05/11 11:02:19;;;;;;;;;;;19.60;55.70;;;;;;6248647;28;19916;-69
2023/05/11 11:05:33;;;;;;;;;;;19.60;55.60;;;;;;6266414;28;19946;-69
2023/05/11 11:09:00;;;;;;;;;;;19.60;55.60;;;;;;6283218;28;19912;-69
2023/05/11 11:12:08;;;;;;;;;;;19.60;55.70;;;;;;6318804;28;20387;-68
2023/05/11 11:15:09;;;;;;;;;;;19.60;55.70;;;;;;6280980;28;19908;-69
2023/05/11 11:18:22;;;;;;;;;;;19.60;55.60;;;;;;6275512;28;20320;-68
2023/05/11 11:21:40;;;;;;;;;;;19.70;55.60;;;;;;6275758;28;19988;-68
2023/05/11 11:24:44;;;;;;;;;;;19.60;55.60;;;;;;6307403;28;19923;-69
2023/05/11 11:27:48;;;;;;;;;;;19.60;55.60;;;;;;6284654;28;19916;-68
2023/05/11 11:31:09;;;;;;;;;;;19.60;55.60;;;;;;6282451;28;19913;-69
2023/05/11 11:34:28;;;;;;;;;;;19.70;55.60;;;;;;6298233;28;19916;-69
2023/05/11 11:37:49;;;;;;;;;;;19.70;55.60;;;;;;6304827;28;19963;-68
2023/05/11 11:40:53;;;;;;;;;;;19.70;55.60;;;;;;6316388;28;19915;-68
2023/05/11 11:43:54;;;;;;;;;;;19.70;55.60;;;;;;6277925;28;19924;-68
2023/05/11 11:47:14;;;;;;;;;;;19.60;55.70;;;;;;6288423;28;19925;-69
2023/05/11 11:50:15;;;;;;;;;;;19.60;55.70;;;;;;6298109;28;19916;-69
2023/05/11 11:53:34;;;;;;;;;;;19.60;55.70;;;;;;6302195;28;20343;-68
2023/05/11 11:56:38;;;;;;;;;;;19.70;55.70;;;;;;6311596;28;19908;-68
2023/05/11 11:59:45;;;;;;;;;;;19.70;55.80;;;;;;6296313;28;19913;-68
2023/05/11 12:02:48;;;;;;;;;;;19.70;55.70;;;;;;6303762;28;19914;-68
2023/05/11 12:05:50;;;;;;;;;;;19.60;55.80;;;;;;6322832;28;20296;-68
2023/05/11 12:08:51;;;;;;;;;;;19.60;55.70;;;;;;6307172;28;20035;-68
2023/05/11 12:11:51;;;;;;;;;;;19.60;55.80;;;;;;6297480;28;19908;-68
2023/05/11 12:14:52;;;;;;;;;;;19.60;55.80;;;;;;6297129;28;19909;-68
2023/05/11 12:17:53;;;;;;;;;;;19.60;55.80;;;;;;6288338;28;19912;-68
2023/05/11 12:20:54;;;;;;;;;;;19.60;55.80;;;;;;6319770;28;19912;-69
2023/05/11 12:24:06;;;;;;;;;;;19.60;55.80;;;;;;6296571;28;20381;-68
2023/05/11 12:27:08;;;;;;;;;;;19.60;55.80;;;;;;6278731;28;19946;-68
2023/05/11 12:33:47;;;;;;;;;;;19.60;55.70;;;;;;6304063;28;20440;-68
2023/05/11 12:44:26;;;;;;;;;;;19.60;55.80;;;;;;6296504;28;19913;-68
2023/05/11 12:47:28;;;;;;;;;;;19.60;55.70;;;;;;6277728;28;20296;-69
2023/05/11 12:50:39;;;;;;;;;;;19.60;55.80;;;;;;6297901;28;19916;-69
2023/05/11 12:57:25;;;;;;;;;;;19.70;55.80;;;;;;6296282;28;19912;-68
2023/05/11 13:00:48;;;;;;;;;;;;;;;;;;;;;
2023/05/11 13:04:12;;;;;;;;;;;19.70;55.90;;;;;;6275018;28;20063;-68
2023/05/11 13:07:24;;;;;;;;;;;19.60;55.80;;;;;;6296509;28;19912;-69
2023/05/11 13:10:27;;;;;;;;;;;19.60;55.80;;;;;;6311154;28;19915;-68
2023/05/11 13:13:28;;;;;;;;;;;19.70;55.90;;;;;;6321331;28;19908;-68
2023/05/11 13:16:29;;;;;;;;;;;19.60;55.80;;;;;;6289912;28;19915;-68
2023/05/11 13:19:32;;;;;;;;;;;19.60;55.80;;;;;;6284462;28;19909;-69
2023/05/11 13:22:32;;;;;;;;;;;19.70;55.80;;;;;;6293972;28;20353;-68
2023/05/11 13:25:34;;;;;;;;;;;19.70;55.70;;;;;;6280656;28;19944;-69
2023/05/11 13:28:36;;;;;;;;;;;19.70;55.80;;;;;;6275221;28;19948;-68
2023/05/11 13:31:46;;;;;;;;;;;19.70;55.80;;;;;;6278270;28;19913;-68
2023/05/11 13:34:47;;;;;;;;;;;19.70;55.80;;;;;;6295519;28;19916;-68
2023/05/11 13:37:47;;;;;;;;;;;19.70;55.80;;;;;;6295196;28;19947;-68
2023/05/11 13:40:48;;;;;;;;;;;19.70;55.80;;;;;;6295303;28;19916;-68
2023/05/11 13:43:49;;;;;;;;;;;19.70;55.80;;;;;;6295075;28;20018;-68
2023/05/11 13:46:50;;;;;;;;;;;19.70;55.80;;;;;;6298106;28;19970;-68
2023/05/11 13:49:52;;;;;;;;;;;19.70;55.80;;;;;;6311412;28;19912;-68
2023/05/11 13:52:53;;;;;;;;;;;19.70;55.80;;;;;;6314387;28;20281;-68
2023/05/11 13:55:54;;;;;;;;;;;19.70;55.80;;;;;;6294736;28;19916;-68
2023/05/11 13:58:54;;;;;;;;;;;19.70;55.90;;;;;;6295135;28;19963;-65
2023/05/11 14:01:56;;;;;;;;;;;19.60;55.80;;;;;;6295725;28;19912;-67
2023/05/11 14:04:56;;;;;;;;;;;19.70;55.90;;;;;;6278117;28;20413;-66
2023/05/11 14:07:57;;;;;;;;;;;19.60;55.80;;;;;;6295759;28;19919;-65
2023/05/11 14:10:57;;;;;;;;;;;19.60;55.80;;;;;;6294781;28;19912;-64
2023/05/11 14:13:58;;;;;;;;;;;19.60;55.80;;;;;;6276863;28;19912;-66
2023/05/11 14:16:58;;;;;;;;;;;19.60;55.90;;;;;;6284336;28;19913;-66
2023/05/11 14:19:59;;;;;;;;;;;19.60;55.80;;;;;;6287416;28;19962;-66
2023/05/11 14:23:00;;;;;;;;;;;19.60;55.80;;;;;;6295340;28;19916;-66
2023/05/11 14:26:00;;;;;;;;;;;19.60;55.80;;;;;;6294310;28;20014;-66
2023/05/11 14:29:01;;;;;;;;;;;19.60;55.80;;;;;;6293656;28;19912;-66
2023/05/11 14:32:01;;;;;;;;;;;19.70;55.90;;;;;;6276011;28;19908;-67
2023/05/11 14:35:02;;;;;;;;;;;19.70;55.80;;;;;;6294440;28;19909;-67
2023/05/11 14:38:03;;;;;;;;;;;19.70;55.80;;;;;;6289167;28;19938;-66
2023/05/11 14:41:04;;;;;;;;;;;19.70;55.80;;;;;;6294175;28;19910;-66
2023/05/11 14:44:04;;;;;;;;;;;19.70;55.90;;;;;;6293338;28;19923;-66
2023/05/11 14:47:06;;;;;;;;;;;19.70;55.80;;;;;;6293921;28;19920;-66
2023/05/11 14:50:07;;;;;;;;;;;19.70;55.90;;;;;;6293417;28;19924;-66
2023/05/11 14:53:08;;;;;;;;;;;19.70;55.90;;;;;;6309178;28;19978;-67
2023/05/11 14:56:09;;;;;;;;;;;19.60;55.80;;;;;;6276292;28;19908;-66
2023/05/11 14:59:09;;;;;;;;;;;19.70;55.90;;;;;;6296105;28;19954;-67
2023/05/11 15:02:10;;;;;;;;;;;19.70;55.90;;;;;;6286976;28;19938;-66
2023/05/11 15:05:10;;;;;;;;;;;19.70;55.90;;;;;;6292771;28;20075;-66
2023/05/11 15:08:11;;;;;;;;;;;19.70;55.90;;;;;;6287624;28;19909;-66
2023/05/11 15:11:12;;;;;;;;;;;19.60;55.90;;;;;;6293856;28;20013;-66
2023/05/11 15:14:12;;;;;;;;;;;19.70;55.90;;;;;;6292247;28;19934;-66
2023/05/11 15:17:13;;;;;;;;;;;19.70;55.90;;;;;;6293739;28;19913;-66
2023/05/11 15:20:15;;;;;;;;;;;19.60;55.80;;;;;;6293643;28;19991;-66
2023/05/11 15:23:16;;;;;;;;;;;19.60;55.80;;;;;;6293457;28;20061;-66
2023/05/11 15:26:17;;;;;;;;;;;19.70;56.00;;;;;;6293407;28;19919;-66
2023/05/11 15:29:19;;;;;;;;;;;19.70;55.90;;;;;;6293165;28;19908;-66
2023/05/11 15:32:20;;;;;;;;;;;19.70;56.00;;;;;;6275414;28;19915;-66
2023/05/11 15:35:21;;;;;;;;;;;19.70;55.90;;;;;;6298096;28;20350;-66
2023/05/11 15:38:21;;;;;;;;;;;19.60;55.80;;;;;;6306550;28;19915;-66
2023/05/11 15:41:22;;;;;;;;;;;19.60;55.90;;;;;;6302673;28;19948;-66
2023/05/11 15:44:23;;;;;;;;;;;19.60;55.90;;;;;;6303592;28;20370;-66
2023/05/11 15:47:24;;;;;;;;;;;19.60;55.90;;;;;;6301864;28;19928;-66
2023/05/11 15:50:25;;;;;;;;;;;19.60;55.90;;;;;;6292799;28;19988;-66
2023/05/11 15:53:26;;;;;;;;;;;19.60;55.90;;;;;;6307489;28;19912;-66
2023/05/11 15:56:28;;;;;;;;;;;19.60;55.90;;;;;;6301112;28;20404;-70
2023/05/11 15:59:31;;;;;;;;;;;19.60;55.90;;;;;;6281580;28;19916;-66
2023/05/11 16:02:31;;;;;;;;;;;19.60;55.90;;;;;;6297888;28;19909;-67
2023/05/11 16:05:32;;;;;;;;;;;19.60;56.00;;;;;;6297371;28;19950;-66
2023/05/11 16:08:33;;;;;;;;;;;19.60;56.00;;;;;;6298984;28;19916;-66
2023/05/11 16:11:33;;;;;;;;;;;19.60;56.00;;;;;;6280005;28;20376;-66
2023/05/11 16:14:34;;;;;;;;;;;19.60;56.00;;;;;;6296893;28;20392;-66
2023/05/11 16:17:35;;;;;;;;;;;19.60;56.00;;;;;;6282078;28;19913;-66
2023/05/11 16:20:36;;;;;;;;;;;19.60;56.60;;;;;;6295753;28;19915;-66
2023/05/11 16:23:37;;;;;;;;;;;19.60;55.90;;;;;;6294190;28;19916;-65
2023/05/11 16:26:37;;;;;;;;;;;19.60;55.90;;;;;;6295178;28;20324;-66
2023/05/11 16:29:38;;;;;;;;;;;19.60;55.90;;;;;;6295358;28;19920;-66
2023/05/11 16:32:38;;;;;;;;;;;19.60;55.90;;;;;;6295229;28;19943;-66
2023/05/11 16:35:39;;;;;;;;;;;19.60;56.00;;;;;;6316725;28;19912;-66
2023/05/11 16:38:40;;;;;;;;;;;19.60;55.90;;;;;;6302557;28;20008;-66
2023/05/11 16:41:40;;;;;;;;;;;19.60;56.00;;;;;;6305210;28;19909;-66
2023/05/11 16:44:41;;;;;;;;;;;19.60;56.00;;;;;;6298726;28;19913;-66
2023/05/11 16:47:43;;;;;;;;;;;19.60;56.00;;;;;;6294511;28;19921;-66
2023/05/11 16:50:44;;;;;;;;;;;19.60;56.00;;;;;;6313363;28;20372;-66
2023/05/11 16:53:45;;;;;;;;;;;19.60;56.00;;;;;;6293566;28;19912;-66
2023/05/11 16:56:46;;;;;;;;;;;19.70;56.00;;;;;;6283207;28;19952;-66
2023/05/11 16:59:47;;;;;;;;;;;19.70;56.00;;;;;;6293859;28;19920;-66
2023/05/11 17:02:47;;;;;;;;;;;19.60;55.90;;;;;;6285780;28;19924;-66
2023/05/11 17:05:49;;;;;;;;;;;19.60;55.90;;;;;;6313180;28;19908;-66
2023/05/11 17:08:50;;;;;;;;;;;19.60;55.90;;;;;;6293923;28;19915;-66
2023/05/11 17:11:51;;;;;;;;;;;19.60;55.90;;;;;;6294422;28;19909;-66
2023/05/11 17:14:51;;;;;;;;;;;19.60;56.00;;;;;;6294059;28;19912;-66
2023/05/11 17:17:52;;;;;;;;;;;19.60;56.00;;;;;;6293803;28;19908;-66
2023/05/11 17:20:53;;;;;;;;;;;19.60;56.00;;;;;;6311698;28;19908;-66
2023/05/11 17:23:54;;;;;;;;;;;19.60;55.90;;;;;;6294976;28;19913;-66
2023/05/11 17:26:54;;;;;;;;;;;19.60;56.00;;;;;;6318984;28;19908;-66
2023/05/11 17:29:56;;;;;;;;;;;19.60;56.20;;;;;;6318235;28;19909;-66
2023/05/11 17:32:56;;;;;;;;;;;19.70;56.40;;;;;;6282442;28;19912;-66
2023/05/11 17:35:57;;;;;;;;;;;19.60;56.80;;;;;;6293635;28;19909;-66
2023/05/11 17:38:58;;;;;;;;;;;19.70;56.50;;;;;;6294003;28;20006;-66
2023/05/11 17:41:58;;;;;;;;;;;19.70;56.50;;;;;;6294583;28;19909;-66
2023/05/11 17:44:59;;;;;;;;;;;19.80;56.40;;;;;;6294050;28;20058;-66
2023/05/11 17:47:59;;;;;;;;;;;19.70;56.30;;;;;;6294042;28;20381;-66
2023/05/11 17:51:00;;;;;;;;;;;19.70;56.20;;;;;;6293976;28;20353;-66
2023/05/11 17:54:01;;;;;;;;;;;19.70;57.00;;;;;;6294171;28;20003;-66
2023/05/11 17:57:03;;;;;;;;;;;19.70;56.40;;;;;;6293402;28;19930;-66
2023/05/11 18:00:05;;;;;;;;;;;19.70;56.40;;;;;;6306349;28;19960;-66
2023/05/11 18:03:05;;;;;;;;;;;19.70;56.40;;;;;;6293856;28;19913;-66
2023/05/11 18:06:06;;;;;;;;;;;19.70;56.40;;;;;;6268193;28;20394;-66
2023/05/11 18:09:10;;;;;;;;;;;19.70;56.20;;;;;;6268435;28;19916;-66